sensor_id;sensor_type;location;lat;lon;timestamp;pressure;altitude;pressure_sealevel;temperature;humidity
51259;BME280;37327;54.254;18.504;2023-04-01T00:02:49;99133.66;;;4.99;100.00
51259;BME280;37327;54.254;18.504;2023-04-01T00:06:08;99125.29;;;5.02;100.00
51259;BME280;37327;54.254;18.504;2023-04-01T00:09:26;99126.29;;;5.01;100.00
51259;BME280;37327;54.254;18.504;2023-04-01T00:12:43;99134.21;;;4.94;100.00
51259;BME280;37327;54.254;18.504;2023-04-01T00:16:02;99131.71;;;4.93;100.00
51259;BME280;37327;54.254;18.504;2023-04-01T00:19:21;99138.42;;;4.89;100.00
51259;BME280;37327;54.254;18.504;2023-04-01T00:22:38;99141.45;;;4.86;100.00
51259;BME280;37327;54.254;18.504;2023-04-01T00:25:55;99132.49;;;4.79;100.00
51259;BME280;37327;54.254;18.504;2023-04-01T00:29:13;99137.46;;;4.82;100.00
51259;BME280;37327;54.254;18.504;2023-04-01T00:32:31;99140.14;;;4.82;100.00
51259;BME280;37327;54.254;18.504;2023-04-01T00:35:48;99139.86;;;4.77;100.00
51259;BME280;37327;54.254;18.504;2023-04-01T00:39:05;99133.72;;;4.68;100.00
51259;BME280;37327;54.254;18.504;2023-04-01T00:42:23;99141.80;;;4.60;100.00
51259;BME280;37327;54.254;18.504;2023-04-01T00:45:43;99139.18;;;4.51;100.00
51259;BME280;37327;54.254;18.504;2023-04-01T00:49:01;99132.98;;;4.51;100.00
51259;BME280;37327;54.254;18.504;2023-04-01T00:52:21;99133.17;;;4.49;100.00
51259;BME280;37327;54.254;18.504;2023-04-01T00:55:42;99131.98;;;4.52;100.00
51259;BME280;37327;54.254;18.504;2023-04-01T00:59:06;99128.11;;;4.54;100.00
51259;BME280;37327;54.254;18.504;2023-04-01T01:02:27;99126.30;;;4.55;100.00
51259;BME280;37327;54.254;18.504;2023-04-01T01:12:46;99134.40;;;4.39;100.00
51259;BME280;37327;54.254;18.504;2023-04-01T01:37:16;99153.48;;;4.27;100.00
51259;BME280;37327;54.254;18.504;2023-04-01T01:40:34;99151.83;;;4.26;100.00
51259;BME280;37327;54.254;18.504;2023-04-01T01:43:56;99151.01;;;4.26;100.00
51259;BME280;37327;54.254;18.504;2023-04-01T01:47:17;99144.48;;;4.28;100.00
51259;BME280;37327;54.254;18.504;2023-04-01T01:50:37;99151.30;;;4.31;100.00
51259;BME280;37327;54.254;18.504;2023-04-01T01:53:54;99148.28;;;4.34;100.00
51259;BME280;37327;54.254;18.504;2023-04-01T01:57:12;99145.78;;;4.32;100.00
51259;BME280;37327;54.254;18.504;2023-04-01T02:00:30;99155.27;;;4.35;100.00
51259;BME280;37327;54.254;18.504;2023-04-01T02:03:48;99155.27;;;4.35;100.00
51259;BME280;37327;54.254;18.504;2023-04-01T02:07:18;99154.95;;;4.38;100.00
51259;BME280;37327;54.254;18.504;2023-04-01T02:10:41;99151.74;;;4.43;100.00
51259;BME280;37327;54.254;18.504;2023-04-01T02:17:31;99150.57;;;4.45;100.00
51259;BME280;37327;54.254;18.504;2023-04-01T02:20:50;99161.06;;;4.47;100.00
51259;BME280;37327;54.254;18.504;2023-04-01T02:24:11;99160.24;;;4.46;100.00
51259;BME280;37327;54.254;18.504;2023-04-01T02:27:30;99163.08;;;4.45;100.00
51259;BME280;37327;54.254;18.504;2023-04-01T02:30:49;99158.59;;;4.45;100.00
51259;BME280;37327;54.254;18.504;2023-04-01T02:34:07;99166.45;;;4.39;100.00
51259;BME280;37327;54.254;18.504;2023-04-01T02:37:25;99165.15;;;4.34;100.00
51259;BME280;37327;54.254;18.504;2023-04-01T02:40:48;99166.14;;;4.33;100.00
51259;BME280;37327;54.254;18.504;2023-04-01T02:44:06;99170.16;;;4.29;100.00
51259;BME280;37327;54.254;18.504;2023-04-01T02:47:24;99170.86;;;4.23;100.00
51259;BME280;37327;54.254;18.504;2023-04-01T02:50:42;99175.71;;;4.20;100.00
51259;BME280;37327;54.254;18.504;2023-04-01T02:53:59;99175.91;;;4.10;100.00
51259;BME280;37327;54.254;18.504;2023-04-01T02:57:16;99181.96;;;4.04;100.00
51259;BME280;37327;54.254;18.504;2023-04-01T03:00:34;99188.15;;;4.04;100.00
51259;BME280;37327;54.254;18.504;2023-04-01T03:03:51;99184.99;;;4.01;100.00
51259;BME280;37327;54.254;18.504;2023-04-01T03:07:09;99187.66;;;3.92;100.00
51259;BME280;37327;54.254;18.504;2023-04-01T03:10:29;99192.70;;;3.87;100.00
51259;BME280;37327;54.254;18.504;2023-04-01T03:13:46;99195.04;;;3.82;100.00
51259;BME280;37327;54.254;18.504;2023-04-01T03:17:03;99200.54;;;3.81;100.00
51259;BME280;37327;54.254;18.504;2023-04-01T03:20:22;99194.05;;;3.83;100.00
51259;BME280;37327;54.254;18.504;2023-04-01T03:23:39;99208.05;;;3.85;100.00
51259;BME280;37327;54.254;18.504;2023-04-01T03:26:57;99209.21;;;3.83;100.00
51259;BME280;37327;54.254;18.504;2023-04-01T03:30:15;99206.56;;;3.74;100.00
51259;BME280;37327;54.254;18.504;2023-04-01T03:33:32;99210.75;;;3.77;100.00
51259;BME280;37327;54.254;18.504;2023-04-01T03:36:52;99211.07;;;3.74;100.00
51259;BME280;37327;54.254;18.504;2023-04-01T03:40:10;99201.74;;;3.70;100.00
51259;BME280;37327;54.254;18.504;2023-04-01T03:43:27;99205.56;;;3.75;100.00
51259;BME280;37327;54.254;18.504;2023-04-01T03:46:44;99200.07;;;3.77;100.00
51259;BME280;37327;54.254;18.504;2023-04-01T03:50:02;99210.55;;;3.79;100.00
51259;BME280;37327;54.254;18.504;2023-04-01T03:53:19;99205.56;;;3.75;100.00
51259;BME280;37327;54.254;18.504;2023-04-01T03:56:37;99205.73;;;3.74;100.00
51259;BME280;37327;54.254;18.504;2023-04-01T03:59:55;99210.75;;;3.77;100.00
51259;BME280;37327;54.254;18.504;2023-04-01T04:03:12;99213.58;;;3.75;100.00
51259;BME280;37327;54.254;18.504;2023-04-01T04:06:29;99207.91;;;3.70;100.00
51259;BME280;37327;54.254;18.504;2023-04-01T04:09:47;99215.91;;;3.70;100.00
51259;BME280;37327;54.254;18.504;2023-04-01T04:13:04;99221.09;;;3.72;100.00
51259;BME280;37327;54.254;18.504;2023-04-01T04:16:21;99225.77;;;3.70;100.00
51259;BME280;37327;54.254;18.504;2023-04-01T04:19:38;99236.10;;;3.65;100.00
51259;BME280;37327;54.254;18.504;2023-04-01T04:22:56;99222.59;;;3.66;100.00
51259;BME280;37327;54.254;18.504;2023-04-01T04:26:14;99224.60;;;3.64;100.00
51259;BME280;37327;54.254;18.504;2023-04-01T04:29:32;99237.94;;;3.64;100.00
51259;BME280;37327;54.254;18.504;2023-04-01T04:32:49;99238.93;;;3.63;100.00
51259;BME280;37327;54.254;18.504;2023-04-01T04:36:08;99233.95;;;3.60;100.00
51259;BME280;37327;54.254;18.504;2023-04-01T04:39:25;99237.28;;;3.62;100.00
51259;BME280;37327;54.254;18.504;2023-04-01T04:42:43;99240.27;;;3.59;100.00
51259;BME280;37327;54.254;18.504;2023-04-01T04:46:05;99245.97;;;3.56;100.00
51259;BME280;37327;54.254;18.504;2023-04-01T04:49:23;99244.12;;;3.56;100.00
51259;BME280;37327;54.254;18.504;2023-04-01T04:52:40;99242.28;;;3.57;100.00
51259;BME280;37327;54.254;18.504;2023-04-01T04:55:57;99250.47;;;3.55;100.00
51259;BME280;37327;54.254;18.504;2023-04-01T04:59:14;99252.12;;;3.56;100.00
51259;BME280;37327;54.254;18.504;2023-04-01T05:02:32;99251.14;;;3.58;100.00
51259;BME280;37327;54.254;18.504;2023-04-01T05:05:52;99259.80;;;3.60;100.00
51259;BME280;37327;54.254;18.504;2023-04-01T05:09:09;99260.48;;;3.62;100.00
51259;BME280;37327;54.254;18.504;2023-04-01T05:12:26;99260.48;;;3.62;100.00
51259;BME280;37327;54.254;18.504;2023-04-01T05:15:44;99257.14;;;3.60;100.00
51259;BME280;37327;54.254;18.504;2023-04-01T05:19:01;99265.63;;;3.63;100.00
51259;BME280;37327;54.254;18.504;2023-04-01T05:22:18;99261.15;;;3.64;100.00
51259;BME280;37327;54.254;18.504;2023-04-01T05:25:37;99265.81;;;3.62;100.00
51259;BME280;37327;54.254;18.504;2023-04-01T05:28:55;99263.14;;;3.62;100.00
51259;BME280;37327;54.254;18.504;2023-04-01T05:32:12;99275.31;;;3.64;100.00
51259;BME280;37327;54.254;18.504;2023-04-01T05:35:29;99271.30;;;3.68;100.00
51259;BME280;37327;54.254;18.504;2023-04-01T05:38:47;99268.80;;;3.67;100.00
51259;BME280;37327;54.254;18.504;2023-04-01T05:42:08;99268.80;;;3.67;100.00
51259;BME280;37327;54.254;18.504;2023-04-01T05:45:26;99273.98;;;3.68;100.00
51259;BME280;37327;54.254;18.504;2023-04-01T05:48:43;99276.48;;;3.70;100.00
51259;BME280;37327;54.254;18.504;2023-04-01T05:52:00;99282.48;;;3.72;100.00
51259;BME280;37327;54.254;18.504;2023-04-01T05:55:18;99290.16;;;3.75;100.00
51259;BME280;37327;54.254;18.504;2023-04-01T05:58:36;99301.67;;;3.75;100.00
51259;BME280;37327;54.254;18.504;2023-04-01T06:01:53;99295.67;;;3.73;100.00
51259;BME280;37327;54.254;18.504;2023-04-01T06:05:15;99297.84;;;3.70;100.00
51259;BME280;37327;54.254;18.504;2023-04-01T06:08:34;99300.16;;;3.73;100.00
51259;BME280;37327;54.254;18.504;2023-04-01T06:12:05;99305.17;;;3.76;100.00
51259;BME280;37327;54.254;18.504;2023-04-01T06:18:59;99313.49;;;3.73;100.00
51259;BME280;37327;54.254;18.504;2023-04-01T06:22:29;99311.84;;;3.72;100.00
51259;BME280;37327;54.254;18.504;2023-04-01T06:25:58;99316.36;;;3.71;100.00
51259;BME280;37327;54.254;18.504;2023-04-01T06:32:58;99327.35;;;3.76;100.00
51259;BME280;37327;54.254;18.504;2023-04-01T06:47:41;99349.22;;;3.55;100.00
51259;BME280;37327;54.254;18.504;2023-04-01T06:57:22;99357.03;;;3.49;100.00
51259;BME280;37327;54.254;18.504;2023-04-01T07:00:44;99363.38;;;3.48;100.00
51259;BME280;37327;54.254;18.504;2023-04-01T07:04:13;99369.20;;;3.51;100.00
51259;BME280;37327;54.254;18.504;2023-04-01T07:07:47;99377.55;;;3.48;100.00
51259;BME280;37327;54.254;18.504;2023-04-01T07:11:03;99371.70;;;3.45;100.00
51259;BME280;37327;54.254;18.504;2023-04-01T07:14:34;99380.54;;;3.45;100.00
51259;BME280;37327;54.254;18.504;2023-04-01T07:21:29;99387.86;;;3.43;100.00
51259;BME280;37327;54.254;18.504;2023-04-01T07:24:48;99395.20;;;3.41;100.00
51259;BME280;37327;54.254;18.504;2023-04-01T07:28:12;99395.70;;;3.36;100.00
51259;BME280;37327;54.254;18.504;2023-04-01T08:06:29;99426.10;;;3.52;100.00
51259;BME280;37327;54.254;18.504;2023-04-01T08:09:55;99431.95;;;3.55;100.00
51259;BME280;37327;54.254;18.504;2023-04-01T08:23:50;99455.27;;;3.53;100.00
51259;BME280;37327;54.254;18.504;2023-04-01T08:27:37;99452.95;;;3.50;100.00
51259;BME280;37327;54.254;18.504;2023-04-01T08:30:44;99463.24;;;3.45;100.00
51259;BME280;37327;54.254;18.504;2023-04-01T08:34:08;99467.76;;;3.45;100.00
51259;BME280;37327;54.254;18.504;2023-04-01T08:37:32;99462.58;;;3.43;100.00
51259;BME280;37327;54.254;18.504;2023-04-01T08:44:31;99471.75;;;3.41;100.00
51259;BME280;37327;54.254;18.504;2023-04-01T08:55:10;99486.56;;;3.35;100.00
51259;BME280;37327;54.254;18.504;2023-04-01T09:05:35;99489.61;;;3.40;100.00
51259;BME280;37327;54.254;18.504;2023-04-01T09:12:43;99505.23;;;3.35;100.00
51259;BME280;37327;54.254;18.504;2023-04-01T09:19:42;99520.72;;;3.31;100.00
51259;BME280;37327;54.254;18.504;2023-04-01T09:30:17;99524.70;;;3.27;100.00
51259;BME280;37327;54.254;18.504;2023-04-01T09:40:33;99538.43;;;3.32;100.00
51259;BME280;37327;54.254;18.504;2023-04-01T09:47:40;99545.27;;;3.35;100.00
51259;BME280;37327;54.254;18.504;2023-04-01T10:29:57;99594.18;;;3.18;100.00
51259;BME280;37327;54.254;18.504;2023-04-01T10:40:13;99603.78;;;3.10;100.00
51259;BME280;37327;54.254;18.504;2023-04-01T11:01:10;99623.56;;;3.26;100.00
51259;BME280;37327;54.254;18.504;2023-04-01T11:04:41;99626.41;;;3.24;100.00
51259;BME280;37327;54.254;18.504;2023-04-01T11:11:38;99630.15;;;3.13;100.00
51259;BME280;37327;54.254;18.504;2023-04-01T11:22:08;99643.63;;;3.12;100.00
51259;BME280;37327;54.254;18.504;2023-04-01T11:32:33;99657.80;;;3.12;100.00
51259;BME280;37327;54.254;18.504;2023-04-01T11:36:02;99656.82;;;3.13;100.00
51259;BME280;37327;54.254;18.504;2023-04-01T11:50:03;99653.24;;;3.23;100.00
51259;BME280;37327;54.254;18.504;2023-04-01T11:53:37;99669.92;;;3.25;100.00
51259;BME280;37327;54.254;18.504;2023-04-01T12:14:30;99683.11;;;3.26;100.00
51259;BME280;37327;54.254;18.504;2023-04-01T12:21:25;99687.59;;;3.26;100.00
51259;BME280;37327;54.254;18.504;2023-04-01T12:28:28;99691.88;;;3.19;100.00
51259;BME280;37327;54.254;18.504;2023-04-01T12:31:58;99702.55;;;3.19;100.00
51259;BME280;37327;54.254;18.504;2023-04-01T12:38:52;99694.55;;;3.19;100.00
51259;BME280;37327;54.254;18.504;2023-04-01T12:56:14;99735.62;;;2.90;100.00
51259;BME280;37327;54.254;18.504;2023-04-01T13:10:15;99749.16;;;2.79;100.00
51259;BME280;37327;54.254;18.504;2023-04-01T13:27:34;99780.37;;;2.68;100.00
51259;BME280;37327;54.254;18.504;2023-04-01T13:31:20;99785.00;;;2.66;100.00
51259;BME280;37327;54.254;18.504;2023-04-01T13:48:36;99805.42;;;2.48;100.00
51259;BME280;37327;54.254;18.504;2023-04-01T14:23:33;99842.75;;;2.38;100.00
51259;BME280;37327;54.254;18.504;2023-04-01T14:31:27;99842.64;;;2.30;100.00
51259;BME280;37327;54.254;18.504;2023-04-01T14:48:51;99853.73;;;2.25;100.00
51259;BME280;37327;54.254;18.504;2023-04-01T14:52:23;99858.07;;;2.26;100.00
51259;BME280;37327;54.254;18.504;2023-04-01T14:55:49;99868.89;;;2.25;100.00
51259;BME280;37327;54.254;18.504;2023-04-01T14:59:30;99868.20;;;2.23;100.00
51259;BME280;37327;54.254;18.504;2023-04-01T15:20:56;99907.86;;;2.16;100.00
51259;BME280;37327;54.254;18.504;2023-04-01T15:30:36;99923.71;;;2.08;100.00
51259;BME280;37327;54.254;18.504;2023-04-01T15:34:11;99928.48;;;2.04;100.00
51259;BME280;37327;54.254;18.504;2023-04-01T15:41:11;99943.05;;;2.00;100.00
51259;BME280;37327;54.254;18.504;2023-04-01T15:48:13;99951.17;;;1.98;100.00
51259;BME280;37327;54.254;18.504;2023-04-01T15:55:06;99962.52;;;2.01;100.00
51259;BME280;37327;54.254;18.504;2023-04-01T16:02:07;99968.41;;;1.94;100.00
51259;BME280;37327;54.254;18.504;2023-04-01T16:05:34;99972.08;;;1.93;100.00
51259;BME280;37327;54.254;18.504;2023-04-01T16:16:03;99986.34;;;1.92;100.00
51259;BME280;37327;54.254;18.504;2023-04-01T16:26:34;100015.20;;;1.87;100.00
51259;BME280;37327;54.254;18.504;2023-04-01T16:36:54;100026.71;;;1.88;100.00
51259;BME280;37327;54.254;18.504;2023-04-01T16:43:56;100032.86;;;1.88;100.00
51259;BME280;37327;54.254;18.504;2023-04-01T16:47:17;100038.19;;;1.88;100.00
51259;BME280;37327;54.254;18.504;2023-04-01T16:54:16;100050.80;;;1.86;100.00
51259;BME280;37327;54.254;18.504;2023-04-01T17:01:13;100054.70;;;1.82;100.00
51259;BME280;37327;54.254;18.504;2023-04-01T17:08:14;100070.68;;;1.82;100.00
51259;BME280;37327;54.254;18.504;2023-04-01T17:11:41;100073.47;;;1.81;100.00
51259;BME280;37327;54.254;18.504;2023-04-01T17:15:11;100093.23;;;1.78;100.00
51259;BME280;37327;54.254;18.504;2023-04-01T17:46:33;100131.82;;;1.63;100.00
51259;BME280;37327;54.254;18.504;2023-04-01T18:00:30;100146.09;;;1.62;100.00
51259;BME280;37327;54.254;18.504;2023-04-01T18:03:57;100149.62;;;1.62;100.00
51259;BME280;37327;54.254;18.504;2023-04-01T18:07:24;100158.56;;;1.61;100.00
51259;BME280;37327;54.254;18.504;2023-04-01T18:10:52;100162.05;;;1.62;100.00
51259;BME280;37327;54.254;18.504;2023-04-01T18:14:23;100168.09;;;1.64;100.00
51259;BME280;37327;54.254;18.504;2023-04-01T18:17:55;100167.12;;;1.65;100.00
51259;BME280;37327;54.254;18.504;2023-04-01T18:28:24;100196.27;;;1.66;100.00
51259;BME280;37327;54.254;18.504;2023-04-01T18:31:47;100190.24;;;1.64;100.00
51259;BME280;37327;54.254;18.504;2023-04-01T18:38:44;100185.04;;;1.63;100.00
51259;BME280;37327;54.254;18.504;2023-04-01T18:42:15;100194.70;;;1.64;100.00
51259;BME280;37327;54.254;18.504;2023-04-01T18:45:37;100197.23;;;1.65;100.00
51259;BME280;37327;54.254;18.504;2023-04-01T18:52:33;100205.09;;;1.67;100.00
51259;BME280;37327;54.254;18.504;2023-04-01T18:56:01;100213.07;;;1.67;100.00
51259;BME280;37327;54.254;18.504;2023-04-01T18:59:25;100215.73;;;1.67;100.00
51259;BME280;37327;54.254;18.504;2023-04-01T19:02:50;100219.10;;;1.69;100.00
51259;BME280;37327;54.254;18.504;2023-04-01T19:06:27;100222.48;;;1.71;100.00
51259;BME280;37327;54.254;18.504;2023-04-01T19:09:45;100228.63;;;1.71;100.00
51259;BME280;37327;54.254;18.504;2023-04-01T19:37:40;100260.70;;;1.70;100.00
51259;BME280;37327;54.254;18.504;2023-04-01T19:41:13;100262.41;;;1.71;100.00
51259;BME280;37327;54.254;18.504;2023-04-01T19:48:05;100273.76;;;1.73;100.00
51259;BME280;37327;54.254;18.504;2023-04-01T20:02:01;100300.38;;;1.73;100.00
51259;BME280;37327;54.254;18.504;2023-04-01T20:16:00;100322.30;;;1.65;100.00
51259;BME280;37327;54.254;18.504;2023-04-01T20:19:26;100316.39;;;1.62;100.00
51259;BME280;37327;54.254;18.504;2023-04-01T20:26:14;100326.60;;;1.56;100.00
51259;BME280;37327;54.254;18.504;2023-04-01T20:43:42;100337.48;;;1.53;100.00
51259;BME280;37327;54.254;18.504;2023-04-01T21:08:11;100354.20;;;1.44;100.00
51259;BME280;37327;54.254;18.504;2023-04-01T21:36:09;100382.66;;;1.32;100.00
51259;BME280;37327;54.254;18.504;2023-04-01T21:57:03;100393.32;;;1.21;100.00
51259;BME280;37327;54.254;18.504;2023-04-01T22:10:59;100406.50;;;1.23;100.00
51259;BME280;37327;54.254;18.504;2023-04-01T22:14:28;100405.55;;;1.24;100.00
51259;BME280;37327;54.254;18.504;2023-04-01T22:17:56;100410.87;;;1.24;100.00
51259;BME280;37327;54.254;18.504;2023-04-01T22:25:03;100418.12;;;1.22;100.00
51259;BME280;37327;54.254;18.504;2023-04-01T22:28:36;100421.73;;;1.21;100.00
51259;BME280;37327;54.254;18.504;2023-04-01T22:42:33;100449.43;;;1.18;100.00
51259;BME280;37327;54.254;18.504;2023-04-01T22:49:30;100455.59;;;1.18;100.00
51259;BME280;37327;54.254;18.504;2023-04-01T22:52:57;100460.91;;;1.18;100.00
51259;BME280;37327;54.254;18.504;2023-04-01T22:56:22;100463.68;;;1.17;100.00
51259;BME280;37327;54.254;18.504;2023-04-01T22:59:51;100454.14;;;1.14;100.00
51259;BME280;37327;54.254;18.504;2023-04-01T23:06:41;100469.76;;;1.08;100.00
51259;BME280;37327;54.254;18.504;2023-04-01T23:10:02;100476.14;;;1.05;100.00
51259;BME280;37327;54.254;18.504;2023-04-01T23:13:37;100480.27;;;0.98;100.00
51259;BME280;37327;54.254;18.504;2023-04-01T23:16:59;100463.59;;;0.96;100.00
51259;BME280;37327;54.254;18.504;2023-04-01T23:20:27;100476.27;;;0.92;100.00
51259;BME280;37327;54.254;18.504;2023-04-01T23:24:01;100479.27;;;0.88;100.00
51259;BME280;37327;54.254;18.504;2023-04-01T23:27:27;100484.85;;;0.85;100.00
51259;BME280;37327;54.254;18.504;2023-04-01T23:30:49;100479.53;;;0.85;100.00
51259;BME280;37327;54.254;18.504;2023-04-01T23:34:20;100491.84;;;0.86;100.00
51259;BME280;37327;54.254;18.504;2023-04-01T23:37:35;100493.54;;;0.87;100.00
51259;BME280;37327;54.254;18.504;2023-04-01T23:40:54;100500.54;;;0.88;100.00
51259;BME280;37327;54.254;18.504;2023-04-01T23:44:13;100507.57;;;0.89;100.00
51259;BME280;37327;54.254;18.504;2023-04-01T23:47:34;100502.25;;;0.89;100.00
51259;BME280;37327;54.254;18.504;2023-04-01T23:50:53;100500.31;;;0.91;100.00
51259;BME280;37327;54.254;18.504;2023-04-01T23:54:17;100500.31;;;0.91;100.00
51259;BME280;37327;54.254;18.504;2023-04-01T23:57:39;100500.20;;;0.92;100.00
